Time;durP1;ratioP1;P1;durP2;ratioP2;P2;SDS_P1;SDS_P2;PMS_P1;PMS_P2;Temp;Humidity;BMP_temperature;BMP_pressure;BME280_temperature;BME280_humidity;BME280_pressure;Samples;Min_cycle;Max_cycle;Signal;HPM_P1;HPM_P2
2022/06/03 00:00:10;;;;;;;;;;;14.20;99.90;;;;;;5094379;28;19913;-72
2022/06/03 00:02:52;;;;;;;;;;;14.20;99.90;;;;;;5074878;28;19916;-71
2022/06/03 00:05:27;;;;;;;;;;;14.10;99.90;;;;;;5092177;28;19924;-73
2022/06/03 00:07:53;;;;;;;;;;;14.10;99.90;;;;;;5087692;28;20329;-73
2022/06/03 00:10:21;;;;;;;;;;;14.00;99.90;;;;;;5096020;28;19912;-72
2022/06/03 00:12:50;;;;;;;;;;;14.00;99.90;;;;;;5093684;28;20289;-73
2022/06/03 00:15:24;;;;;;;;;;;13.80;99.90;;;;;;5073737;28;20277;-71
2022/06/03 00:17:55;;;;;;;;;;;13.70;99.90;;;;;;5061977;28;19951;-72
2022/06/03 00:20:24;;;;;;;;;;;13.60;99.90;;;;;;5087580;28;19935;-71
2022/06/03 00:23:08;;;;;;;;;;;13.50;99.90;;;;;;5091162;28;19966;-72
2022/06/03 00:25:42;;;;;;;;;;;13.50;99.90;;;;;;5075857;28;19927;-72
2022/06/03 00:28:14;;;;;;;;;;;13.40;99.90;;;;;;5094565;28;19918;-72
2022/06/03 00:30:47;;;;;;;;;;;13.30;99.90;;;;;;5084175;28;19999;-72
2022/06/03 00:33:22;;;;;;;;;;;13.20;99.90;;;;;;5088708;28;20068;-71
2022/06/03 00:35:53;;;;;;;;;;;13.10;99.90;;;;;;5092212;28;19919;-72
2022/06/03 00:38:28;;;;;;;;;;;13.10;99.90;;;;;;5074968;28;19994;-72
2022/06/03 00:41:06;;;;;;;;;;;13.00;99.90;;;;;;5090604;28;20231;-72
2022/06/03 00:43:46;;;;;;;;;;;13.10;99.90;;;;;;5069926;28;19959;-71
2022/06/03 00:46:18;;;;;;;;;;;13.00;99.90;;;;;;5083469;28;19913;-71
2022/06/03 00:48:43;;;;;;;;;;;13.10;99.90;;;;;;5090653;28;20063;-71
2022/06/03 00:51:09;;;;;;;;;;;13.00;99.90;;;;;;5083237;28;20027;-71
2022/06/03 00:53:53;;;;;;;;;;;12.90;99.90;;;;;;5090142;28;19916;-71
2022/06/03 00:56:21;;;;;;;;;;;12.80;99.90;;;;;;5083099;28;20014;-71
2022/06/03 00:58:50;;;;;;;;;;;12.90;99.90;;;;;;5087619;28;19987;-71
2022/06/03 01:01:28;;;;;;;;;;;12.80;99.90;;;;;;5085901;28;20327;-72
2022/06/03 01:04:07;;;;;;;;;;;12.60;99.90;;;;;;5072737;28;20040;-72
2022/06/03 01:06:42;;;;;;;;;;;12.40;99.90;;;;;;5084462;28;20129;-72
2022/06/03 01:09:10;;;;;;;;;;;12.40;99.90;;;;;;5085628;28;19926;-72
2022/06/03 01:11:54;;;;;;;;;;;12.30;99.90;;;;;;5090097;28;19912;-71
2022/06/03 01:14:22;;;;;;;;;;;12.20;99.90;;;;;;5087862;28;19912;-72
2022/06/03 01:17:10;;;;;;;;;;;12.30;99.90;;;;;;5073987;28;20269;-71
2022/06/03 01:19:59;;;;;;;;;;;12.20;99.90;;;;;;5088563;28;20010;-71
2022/06/03 01:22:37;;;;;;;;;;;12.20;99.90;;;;;;5090473;28;19912;-72
2022/06/03 01:25:17;;;;;;;;;;;12.10;99.90;;;;;;5090280;28;19921;-72
2022/06/03 01:27:58;;;;;;;;;;;12.10;99.90;;;;;;5069216;28;20371;-71
2022/06/03 01:30:32;;;;;;;;;;;12.00;99.90;;;;;;5080303;28;19919;-73
2022/06/03 01:33:16;;;;;;;;;;;11.90;99.90;;;;;;5088765;28;19908;-72
2022/06/03 01:35:47;;;;;;;;;;;11.90;99.90;;;;;;5073436;28;20242;-71
2022/06/03 01:38:32;;;;;;;;;;;11.90;99.90;;;;;;5087347;28;19916;-72
2022/06/03 01:41:21;;;;;;;;;;;11.90;99.90;;;;;;5082427;28;19912;-73
2022/06/03 01:43:52;;;;;;;;;;;11.80;99.90;;;;;;5086707;28;20399;-72
2022/06/03 01:46:24;;;;;;;;;;;11.80;99.90;;;;;;5084714;28;20350;-70
2022/06/03 01:48:53;;;;;;;;;;;11.80;99.90;;;;;;5088923;28;19919;-71
2022/06/03 01:51:37;;;;;;;;;;;11.80;99.90;;;;;;5086414;28;19912;-70
2022/06/03 01:54:08;;;;;;;;;;;11.80;99.90;;;;;;5087209;28;19988;-73
2022/06/03 01:56:34;;;;;;;;;;;11.90;99.90;;;;;;5088686;28;20325;-72
2022/06/03 01:58:59;;;;;;;;;;;11.90;99.90;;;;;;5087988;28;19912;-71
2022/06/03 02:01:43;;;;;;;;;;;11.80;99.90;;;;;;5079089;28;19978;-73
2022/06/03 02:04:34;;;;;;;;;;;11.80;99.90;;;;;;5081992;28;20273;-72
2022/06/03 02:07:35;;;;;;;;;;;11.80;99.90;;;;;;5078771;28;19923;-72
2022/06/03 02:10:19;;;;;;;;;;;11.80;99.90;;;;;;4980403;28;19929;-71
2022/06/03 02:12:44;;;;;;;;;;;11.70;99.90;;;;;;5081070;28;19916;-70
2022/06/03 02:15:16;;;;;;;;;;;11.70;99.90;;;;;;5084910;28;19969;-72
2022/06/03 02:17:42;;;;;;;;;;;11.80;99.90;;;;;;5092394;28;19911;-73
2022/06/03 02:20:10;;;;;;;;;;;11.70;99.90;;;;;;5072758;28;19934;-72
2022/06/03 02:22:54;;;;;;;;;;;11.70;99.90;;;;;;5093649;28;20366;-72
2022/06/03 02:25:32;;;;;;;;;;;11.70;99.90;;;;;;5080740;28;20013;-72
2022/06/03 02:28:23;;;;;;;;;;;11.70;99.90;;;;;;5090393;28;19920;-71
2022/06/03 02:30:52;;;;;;;;;;;11.60;99.90;;;;;;5084451;28;20007;-72
2022/06/03 02:33:36;;;;;;;;;;;11.50;99.90;;;;;;5073121;28;19937;-71
2022/06/03 02:36:16;;;;;;;;;;;11.50;99.90;;;;;;5081764;28;20160;-72
2022/06/03 02:39:00;;;;;;;;;;;11.50;99.90;;;;;;5092724;28;20370;-72
2022/06/03 02:41:26;;;;;;;;;;;11.40;99.90;;;;;;5085806;28;19916;-71
2022/06/03 02:43:51;;;;;;;;;;;11.40;99.90;;;;;;5091288;28;20392;-71
2022/06/03 02:46:34;;;;;;;;;;;11.50;99.90;;;;;;5089540;28;19918;-71
2022/06/03 02:49:09;;;;;;;;;;;11.50;99.90;;;;;;5085315;28;19912;-72
2022/06/03 02:51:42;;;;;;;;;;;11.50;99.90;;;;;;5090540;28;19916;-71
2022/06/03 02:54:25;;;;;;;;;;;11.50;99.90;;;;;;5089146;28;19951;-72
2022/06/03 02:56:51;;;;;;;;;;;11.40;99.90;;;;;;5092511;28;19912;-72
2022/06/03 02:59:25;;;;;;;;;;;11.50;99.90;;;;;;5089375;28;20392;-71
2022/06/03 03:02:09;;;;;;;;;;;11.50;99.90;;;;;;5085981;28;20289;-72
2022/06/03 03:04:41;;;;;;;;;;;11.60;99.90;;;;;;5088773;28;19920;-72
2022/06/03 03:07:12;;;;;;;;;;;11.50;99.90;;;;;;5091530;28;19924;-72
2022/06/03 03:09:43;;;;;;;;;;;11.60;99.90;;;;;;5091377;28;20431;-71
2022/06/03 03:12:15;;;;;;;;;;;11.60;99.90;;;;;;5087663;28;19999;-72
2022/06/03 03:14:43;;;;;;;;;;;11.60;99.90;;;;;;5093136;28;20003;-71
2022/06/03 03:17:17;;;;;;;;;;;11.60;99.90;;;;;;5092119;28;19942;-71
2022/06/03 03:19:56;;;;;;;;;;;11.60;99.90;;;;;;5091709;28;19918;-73
2022/06/03 03:22:33;;;;;;;;;;;11.60;99.90;;;;;;5092407;28;19912;-70
2022/06/03 03:25:01;;;;;;;;;;;11.50;99.90;;;;;;5075523;28;19920;-71
2022/06/03 03:27:45;;;;;;;;;;;11.50;99.90;;;;;;5080074;28;19916;-72
2022/06/03 03:30:24;;;;;;;;;;;11.50;99.90;;;;;;5074936;28;20376;-72
2022/06/03 03:32:49;;;;;;;;;;;11.50;99.90;;;;;;5089436;28;19912;-73
2022/06/03 03:35:22;;;;;;;;;;;11.40;99.90;;;;;;5091958;28;19920;-72
2022/06/03 03:37:53;;;;;;;;;;;11.40;99.90;;;;;;5089206;28;19912;-71
2022/06/03 03:40:25;;;;;;;;;;;11.40;99.90;;;;;;5087223;28;19912;-71
2022/06/03 03:43:13;;;;;;;;;;;11.50;99.90;;;;;;5074866;28;19919;-71
2022/06/03 03:45:41;;;;;;;;;;;11.50;99.90;;;;;;5094181;28;19923;-69
2022/06/03 03:48:28;;;;;;;;;;;11.50;99.90;;;;;;5087031;28;19911;-72
2022/06/03 03:51:12;;;;;;;;;;;11.40;99.90;;;;;;5087786;28;19931;-70
2022/06/03 03:53:56;;;;;;;;;;;11.50;99.90;;;;;;5064263;28;20332;-72
2022/06/03 03:56:41;;;;;;;;;;;11.50;99.90;;;;;;5090648;28;19944;-71
2022/06/03 03:59:25;;;;;;;;;;;11.60;99.90;;;;;;5088670;28;20023;-72
2022/06/03 04:02:10;;;;;;;;;;;11.60;99.90;;;;;;5087029;28;19934;-72
2022/06/03 04:04:53;;;;;;;;;;;11.60;99.90;;;;;;5083569;28;20254;-72
2022/06/03 04:07:33;;;;;;;;;;;11.70;99.90;;;;;;5093044;28;20311;-70
2022/06/03 04:10:17;;;;;;;;;;;11.70;99.90;;;;;;5072357;28;20143;-72
2022/06/03 04:12:54;;;;;;;;;;;11.70;99.90;;;;;;5076024;28;20386;-72
2022/06/03 04:15:38;;;;;;;;;;;11.70;99.90;;;;;;5091715;28;19958;-72
2022/06/03 04:18:23;;;;;;;;;;;11.70;99.90;;;;;;5085296;28;19952;-71
2022/06/03 04:20:48;;;;;;;;;;;11.60;99.90;;;;;;5090886;28;20311;-73
2022/06/03 04:23:20;;;;;;;;;;;11.70;99.90;;;;;;5074468;28;19916;-72
2022/06/03 04:25:48;;;;;;;;;;;11.80;99.90;;;;;;5048533;28;19943;-71
2022/06/03 04:28:27;;;;;;;;;;;11.80;99.90;;;;;;5032809;28;19919;-72
2022/06/03 04:30:58;;;;;;;;;;;11.90;99.90;;;;;;5052034;28;19971;-71
2022/06/03 04:33:43;;;;;;;;;;;11.90;99.90;;;;;;5050903;28;20362;-71
2022/06/03 04:36:14;;;;;;;;;;;11.90;99.90;;;;;;5037939;28;20062;-71
2022/06/03 04:38:59;;;;;;;;;;;11.90;99.90;;;;;;5049822;28;19920;-72
2022/06/03 04:41:43;;;;;;;;;;;11.90;99.90;;;;;;5050041;28;19920;-72
2022/06/03 04:44:27;;;;;;;;;;;11.90;99.90;;;;;;5045002;28;19924;-72
2022/06/03 04:47:11;;;;;;;;;;;11.80;99.90;;;;;;5032097;28;20397;-70
2022/06/03 04:49:57;;;;;;;;;;;11.90;99.90;;;;;;5048337;28;20004;-71
2022/06/03 04:52:41;;;;;;;;;;;12.10;99.90;;;;;;5051030;28;19959;-71
2022/06/03 04:55:16;;;;;;;;;;;12.10;99.90;;;;;;5046310;28;19996;-72
2022/06/03 04:58:00;;;;;;;;;;;12.20;99.90;;;;;;5050454;28;19912;-72
2022/06/03 05:00:52;;;;;;;;;;;12.30;99.90;;;;;;5042712;28;19925;-72
2022/06/03 05:03:37;;;;;;;;;;;12.40;99.90;;;;;;5044575;28;20945;-71
2022/06/03 05:06:21;;;;;;;;;;;12.40;99.90;;;;;;5048045;28;19916;-73
2022/06/03 05:09:05;;;;;;;;;;;12.40;99.90;;;;;;5045640;28;19948;-72
2022/06/03 05:11:37;;;;;;;;;;;12.50;99.90;;;;;;5047983;28;19952;-73
2022/06/03 05:14:17;;;;;;;;;;;12.50;99.90;;;;;;5047839;28;19956;-72
2022/06/03 05:17:01;;;;;;;;;;;12.60;99.90;;;;;;5044306;28;19913;-71
2022/06/03 05:19:30;;;;;;;;;;;12.70;99.90;;;;;;5035733;28;19966;-71
2022/06/03 05:22:05;;;;;;;;;;;12.80;99.90;;;;;;5035933;28;20299;-71
2022/06/03 05:24:46;;;;;;;;;;;12.90;99.90;;;;;;5058977;28;20091;-72
2022/06/03 05:27:14;;;;;;;;;;;12.90;99.90;;;;;;5071752;28;20393;-70
2022/06/03 05:29:52;;;;;;;;;;;12.90;99.90;;;;;;5065913;28;19913;-70
2022/06/03 05:32:46;;;;;;;;;;;12.90;99.90;;;;;;5062491;28;19920;-71
2022/06/03 05:35:18;;;;;;;;;;;12.80;99.90;;;;;;5067793;28;19935;-72
2022/06/03 05:37:44;;;;;;;;;;;12.80;99.90;;;;;;5068342;28;19927;-71
2022/06/03 05:40:12;;;;;;;;;;;12.80;99.90;;;;;;5067993;28;19912;-71
2022/06/03 05:42:48;;;;;;;;;;;12.90;99.90;;;;;;5072221;28;19912;-71
2022/06/03 05:45:33;;;;;;;;;;;13.00;99.90;;;;;;5068866;28;20369;-73
2022/06/03 05:47:58;;;;;;;;;;;13.00;99.90;;;;;;5071973;28;19916;-70
2022/06/03 05:50:30;;;;;;;;;;;12.90;99.90;;;;;;5070582;28;20412;-72
2022/06/03 05:52:58;;;;;;;;;;;13.10;99.90;;;;;;5065702;28;20007;-71
2022/06/03 05:55:36;;;;;;;;;;;13.20;99.90;;;;;;5067884;28;19912;-70
2022/06/03 05:58:17;;;;;;;;;;;13.30;99.90;;;;;;5071189;28;20004;-72
2022/06/03 06:00:54;;;;;;;;;;;13.50;99.90;;;;;;5066071;28;19924;-70
2022/06/03 06:03:25;;;;;;;;;;;13.60;99.90;;;;;;5067269;28;19920;-72
2022/06/03 06:06:07;;;;;;;;;;;13.80;99.90;;;;;;5069191;28;20007;-71
2022/06/03 06:08:33;;;;;;;;;;;13.80;99.90;;;;;;5068803;28;19979;-70
2022/06/03 06:11:16;;;;;;;;;;;13.90;99.90;;;;;;5061021;28;20020;-70
2022/06/03 06:13:44;;;;;;;;;;;14.20;99.90;;;;;;5068407;28;19916;-73
2022/06/03 06:16:12;;;;;;;;;;;14.40;99.90;;;;;;5069159;28;19913;-71
2022/06/03 06:19:00;;;;;;;;;;;14.50;99.90;;;;;;5064471;28;19968;-70
2022/06/03 06:21:29;;;;;;;;;;;14.30;99.90;;;;;;5058900;28;20003;-71
2022/06/03 06:24:10;;;;;;;;;;;14.40;99.90;;;;;;5071635;28;20293;-72
2022/06/03 06:26:45;;;;;;;;;;;14.40;99.90;;;;;;5094022;28;19919;-71
2022/06/03 06:29:10;;;;;;;;;;;14.50;99.90;;;;;;5090838;28;20011;-73
2022/06/03 06:31:36;;;;;;;;;;;14.70;99.90;;;;;;5089070;28;20007;-72
2022/06/03 06:34:07;;;;;;;;;;;14.80;99.90;;;;;;5087517;28;19917;-71
2022/06/03 06:36:32;;;;;;;;;;;14.90;99.90;;;;;;5069419;28;19920;-71
2022/06/03 06:39:07;;;;;;;;;;;14.90;99.90;;;;;;5088869;28;20393;-71
2022/06/03 06:41:48;;;;;;;;;;;15.10;99.90;;;;;;5089280;28;20007;-70
2022/06/03 06:44:31;;;;;;;;;;;15.30;99.90;;;;;;5083660;28;19915;-72
2022/06/03 06:47:06;;;;;;;;;;;15.50;99.90;;;;;;5084765;28;19916;-70
2022/06/03 06:49:50;;;;;;;;;;;15.50;99.90;;;;;;5084847;28;19916;-72
2022/06/03 06:52:19;;;;;;;;;;;15.70;99.90;;;;;;5082774;28;19920;-71
2022/06/03 06:54:59;;;;;;;;;;;15.80;99.90;;;;;;5086509;28;20393;-72
2022/06/03 06:57:32;;;;;;;;;;;15.80;99.90;;;;;;5085752;28;19919;-71
2022/06/03 07:00:07;;;;;;;;;;;15.80;99.90;;;;;;5085899;28;19957;-71
2022/06/03 07:02:37;;;;;;;;;;;15.60;99.90;;;;;;5085424;28;19912;-72
2022/06/03 07:05:07;;;;;;;;;;;15.60;99.90;;;;;;5075123;28;20014;-70
2022/06/03 07:07:40;;;;;;;;;;;15.50;99.90;;;;;;5093306;28;19923;-71
2022/06/03 07:10:10;;;;;;;;;;;15.40;99.90;;;;;;5089449;28;19956;-70
2022/06/03 07:12:51;;;;;;;;;;;15.50;99.90;;;;;;5077805;28;19912;-71
2022/06/03 07:15:19;;;;;;;;;;;15.70;99.90;;;;;;5089150;28;19938;-70
2022/06/03 07:20:53;;;;;;;;;;;16.20;99.90;;;;;;5088982;28;19919;-71
2022/06/03 07:23:30;;;;;;;;;;;16.10;99.90;;;;;;5055725;28;20011;-71
2022/06/03 07:25:59;;;;;;;;;;;15.90;99.90;;;;;;5084435;28;19928;-71
2022/06/03 07:28:51;;;;;;;;;;;16.00;99.90;;;;;;5079420;28;19912;-70
2022/06/03 07:31:23;;;;;;;;;;;15.90;99.90;;;;;;5079503;28;19923;-71
2022/06/03 07:34:04;;;;;;;;;;;15.90;99.90;;;;;;5070867;28;19999;-68
2022/06/03 07:36:30;;;;;;;;;;;16.00;99.90;;;;;;5082311;28;20073;-72
2022/06/03 07:38:57;;;;;;;;;;;16.30;99.90;;;;;;5089441;28;20417;-71
2022/06/03 07:41:29;;;;;;;;;;;16.20;99.90;;;;;;5086701;28;19916;-72
2022/06/03 07:43:58;;;;;;;;;;;16.10;99.90;;;;;;5087479;28;19950;-72
2022/06/03 07:46:24;;;;;;;;;;;16.30;99.90;;;;;;5084571;28;19916;-73
2022/06/03 07:48:49;;;;;;;;;;;16.70;99.90;;;;;;5090881;28;19930;-71
2022/06/03 07:51:15;;;;;;;;;;;16.60;99.90;;;;;;5092434;28;19916;-71
2022/06/03 07:53:50;;;;;;;;;;;16.70;99.90;;;;;;5092266;28;20004;-69
2022/06/03 07:56:22;;;;;;;;;;;16.90;99.90;;;;;;5092484;28;19919;-69
2022/06/03 07:58:51;;;;;;;;;;;17.00;99.90;;;;;;5098113;28;20266;-68
2022/06/03 08:01:20;;;;;;;;;;;17.00;99.90;;;;;;5093963;28;19912;-69
2022/06/03 08:03:47;;;;;;;;;;;17.00;99.90;;;;;;5085368;28;20420;-72
2022/06/03 08:06:13;;;;;;;;;;;17.10;99.90;;;;;;5083743;28;19912;-70
2022/06/03 08:11:26;;;;;;;;;;;17.10;99.90;;;;;;5085189;28;19923;-70
2022/06/03 08:13:53;;;;;;;;;;;17.20;99.90;;;;;;5084747;28;19912;-70
2022/06/03 08:16:29;;;;;;;;;;;17.40;99.90;;;;;;5088589;28;19912;-70
2022/06/03 08:18:57;;;;;;;;;;;17.40;99.90;;;;;;5087831;28;20278;-71
2022/06/03 08:21:41;;;;;;;;;;;17.60;99.90;;;;;;5083979;28;19916;-69
2022/06/03 08:24:08;;;;;;;;;;;17.30;99.90;;;;;;5089808;28;20039;-71
2022/06/03 08:26:34;;;;;;;;;;;17.40;99.90;;;;;;5087443;28;19950;-70
2022/06/03 08:29:26;;;;;;;;;;;17.70;99.90;;;;;;5071350;28;20005;-71
2022/06/03 08:31:52;;;;;;;;;;;17.40;99.90;;;;;;5080658;28;19913;-70
2022/06/03 08:34:28;;;;;;;;;;;17.60;99.90;;;;;;5089123;28;19996;-71
2022/06/03 08:36:54;;;;;;;;;;;17.40;99.90;;;;;;5089359;28;20265;-71
2022/06/03 08:39:22;;;;;;;;;;;17.40;99.90;;;;;;5040969;28;19908;-70
2022/06/03 08:42:03;;;;;;;;;;;17.40;99.90;;;;;;5080558;28;19912;-71
2022/06/03 08:44:37;;;;;;;;;;;17.70;99.90;;;;;;5078359;28;20370;-71
2022/06/03 08:47:12;;;;;;;;;;;17.90;99.90;;;;;;5090496;28;19912;-72
2022/06/03 08:49:56;;;;;;;;;;;17.80;99.90;;;;;;5074574;28;19919;-72
2022/06/03 08:52:29;;;;;;;;;;;17.80;99.90;;;;;;5092046;28;20308;-71
2022/06/03 08:54:55;;;;;;;;;;;18.00;99.90;;;;;;5091270;28;19954;-70
2022/06/03 08:57:23;;;;;;;;;;;18.20;99.90;;;;;;5088401;28;20215;-70
2022/06/03 08:59:53;;;;;;;;;;;18.30;99.90;;;;;;5089751;28;19920;-71
2022/06/03 09:02:41;;;;;;;;;;;18.40;99.90;;;;;;5088604;28;19931;-70
2022/06/03 09:05:09;;;;;;;;;;;18.40;99.90;;;;;;5037643;28;19916;-70
2022/06/03 09:07:44;;;;;;;;;;;18.50;99.90;;;;;;5090425;28;20288;-71
2022/06/03 09:10:19;;;;;;;;;;;18.70;99.90;;;;;;5104131;28;19915;-70
2022/06/03 09:12:47;;;;;;;;;;;18.90;99.90;;;;;;5079112;28;19915;-72
2022/06/03 09:15:19;;;;;;;;;;;18.90;99.90;;;;;;5086203;28;19963;-71
2022/06/03 09:17:48;;;;;;;;;;;18.80;99.90;;;;;;5084774;28;19912;-71
2022/06/03 09:20:26;;;;;;;;;;;18.90;99.90;;;;;;5079948;28;19915;-71
2022/06/03 09:22:57;;;;;;;;;;;19.10;99.90;;;;;;5086107;28;19912;-72
2022/06/03 09:25:23;;;;;;;;;;;19.30;99.90;;;;;;5090502;28;19934;-73
2022/06/03 09:27:49;;;;;;;;;;;19.70;99.90;;;;;;5089807;28;19999;-72
2022/06/03 09:30:17;;;;;;;;;;;20.00;99.90;;;;;;5080591;28;20015;-70
2022/06/03 09:32:49;;;;;;;;;;;19.70;99.90;;;;;;5083743;28;19912;-70
2022/06/03 09:35:17;;;;;;;;;;;19.70;99.90;;;;;;5069704;28;20070;-71
2022/06/03 09:37:46;;;;;;;;;;;19.70;99.90;;;;;;5083685;28;19920;-70
2022/06/03 09:40:14;;;;;;;;;;;19.60;99.90;;;;;;5072939;28;20352;-72
2022/06/03 09:42:44;;;;;;;;;;;19.50;99.90;;;;;;5070817;28;20412;-71
2022/06/03 09:45:10;;;;;;;;;;;19.20;99.90;;;;;;5091318;28;19932;-70
2022/06/03 09:47:36;;;;;;;;;;;19.30;99.90;;;;;;5082120;28;20285;-72
2022/06/03 09:50:03;;;;;;;;;;;19.40;99.90;;;;;;5086827;28;19916;-71
2022/06/03 09:52:28;;;;;;;;;;;19.60;99.90;;;;;;5087576;28;19925;-70
2022/06/03 09:54:54;;;;;;;;;;;19.60;99.90;;;;;;5090590;28;19973;-72
2022/06/03 09:57:35;;;;;;;;;;;19.60;99.90;;;;;;5090068;28;19916;-71
2022/06/03 10:00:04;;;;;;;;;;;19.90;99.90;;;;;;5085884;28;19919;-71
2022/06/03 10:02:31;;;;;;;;;;;20.30;99.90;;;;;;5068473;28;20238;-72
2022/06/03 10:04:58;;;;;;;;;;;20.50;99.90;;;;;;5084752;28;19927;-72
2022/06/03 10:07:26;;;;;;;;;;;20.60;99.90;;;;;;5087395;28;19963;-68
2022/06/03 10:12:50;;;;;;;;;;;20.50;99.90;;;;;;5080716;28;19969;-70
2022/06/03 10:18:06;;;;;;;;;;;20.50;99.90;;;;;;5081777;28;19934;-69
2022/06/03 10:20:35;;;;;;;;;;;20.50;99.50;;;;;;5088439;28;20354;-72
2022/06/03 10:23:04;;;;;;;;;;;20.30;99.90;;;;;;5085255;28;19912;-69
2022/06/03 10:25:31;;;;;;;;;;;20.30;99.90;;;;;;5061398;28;19931;-69
2022/06/03 10:28:01;;;;;;;;;;;20.60;99.70;;;;;;5077240;28;20422;-71
2022/06/03 10:30:28;;;;;;;;;;;20.80;98.30;;;;;;5078660;28;19913;-69
2022/06/03 10:32:54;;;;;;;;;;;20.80;98.30;;;;;;5056558;28;19963;-70
2022/06/03 10:35:26;;;;;;;;;;;20.70;99.00;;;;;;5083736;28;19912;-68
2022/06/03 10:37:59;;;;;;;;;;;20.80;97.50;;;;;;5079890;28;19934;-69
2022/06/03 10:40:26;;;;;;;;;;;20.80;97.60;;;;;;5078919;28;20007;-68
2022/06/03 10:42:56;;;;;;;;;;;20.80;97.90;;;;;;5085254;28;19955;-70
2022/06/03 10:45:25;;;;;;;;;;;20.60;98.00;;;;;;5088725;28;19946;-70
2022/06/03 10:47:51;;;;;;;;;;;20.70;98.80;;;;;;5084902;28;19935;-69
2022/06/03 10:50:29;;;;;;;;;;;20.70;98.30;;;;;;5086340;28;19913;-70
2022/06/03 11:01:43;;;;;;;;;;;21.30;95.30;;;;;;5086974;28;19919;-71
2022/06/03 11:04:22;;;;;;;;;;;21.40;94.00;;;;;;5083618;28;19920;-70
2022/06/03 11:06:48;;;;;;;;;;;21.60;94.00;;;;;;5073812;28;20357;-69
2022/06/03 11:09:15;;;;;;;;;;;21.80;94.00;;;;;;5087727;28;19916;-71
2022/06/03 11:11:44;;;;;;;;;;;21.90;93.90;;;;;;5073266;28;19912;-69
2022/06/03 11:14:25;;;;;;;;;;;21.90;93.00;;;;;;5090019;28;19916;-70
2022/06/03 11:16:57;;;;;;;;;;;22.00;93.00;;;;;;5079127;28;19920;-70
2022/06/03 11:19:23;;;;;;;;;;;22.00;92.70;;;;;;5082045;28;19928;-69
2022/06/03 11:22:09;;;;;;;;;;;22.40;92.70;;;;;;5078663;28;19962;-71
2022/06/03 11:24:34;;;;;;;;;;;22.70;92.10;;;;;;5079171;28;20286;-69
2022/06/03 11:27:05;;;;;;;;;;;22.90;91.80;;;;;;5084288;28;21560;-70
2022/06/03 11:29:34;;;;;;;;;;;22.70;92.20;;;;;;5079555;28;19931;-68
2022/06/03 11:32:00;;;;;;;;;;;22.50;92.30;;;;;;5079018;28;19913;-69
2022/06/03 11:34:26;;;;;;;;;;;22.50;92.20;;;;;;5080512;28;19977;-69
2022/06/03 11:36:51;;;;;;;;;;;22.80;91.10;;;;;;5080121;28;20251;-72
2022/06/03 11:39:26;;;;;;;;;;;22.80;91.00;;;;;;5065486;28;19920;-69
2022/06/03 11:42:07;;;;;;;;;;;22.90;87.80;;;;;;5082115;28;19916;-67
2022/06/03 11:44:38;;;;;;;;;;;22.80;89.20;;;;;;5075307;28;20054;-69
2022/06/03 11:47:15;;;;;;;;;;;22.80;89.40;;;;;;5080497;28;19924;-71
2022/06/03 11:49:41;;;;;;;;;;;22.60;90.10;;;;;;5082589;28;19943;-69
2022/06/03 11:52:07;;;;;;;;;;;22.20;90.80;;;;;;5080507;28;19912;-70
2022/06/03 11:54:33;;;;;;;;;;;22.00;91.30;;;;;;5080829;28;19920;-67
2022/06/03 11:57:02;;;;;;;;;;;21.90;92.20;;;;;;5082734;28;20215;-69
2022/06/03 11:59:31;;;;;;;;;;;21.90;91.90;;;;;;5082952;28;19913;-69
2022/06/03 12:02:10;;;;;;;;;;;22.20;91.10;;;;;;5080152;28;19919;-66
2022/06/03 12:04:49;;;;;;;;;;;22.40;89.90;;;;;;5078272;28;19916;-65
2022/06/03 12:07:34;;;;;;;;;;;22.40;87.70;;;;;;5086402;28;20289;-67
2022/06/03 12:10:10;;;;;;;;;;;22.40;88.70;;;;;;5083156;28;20423;-67
2022/06/03 12:15:32;;;;;;;;;;;22.70;86.90;;;;;;5089362;28;19981;-67
2022/06/03 12:18:14;;;;;;;;;;;22.90;86.70;;;;;;5078510;28;19908;-67
2022/06/03 12:20:48;;;;;;;;;;;22.70;87.80;;;;;;5084149;28;19915;-70
2022/06/03 12:23:14;;;;;;;;;;;22.80;87.80;;;;;;5070721;28;20007;-69
2022/06/03 12:25:40;;;;;;;;;;;23.00;87.20;;;;;;5064938;28;19971;-67
2022/06/03 12:28:07;;;;;;;;;;;23.00;86.30;;;;;;5086837;28;19919;-67
2022/06/03 12:30:33;;;;;;;;;;;23.00;86.80;;;;;;5070104;28;19912;-67
2022/06/03 12:33:00;;;;;;;;;;;23.00;86.30;;;;;;5101613;28;19950;-67
2022/06/03 12:35:47;;;;;;;;;;;23.10;86.40;;;;;;5095125;28;19966;-67
2022/06/03 12:38:19;;;;;;;;;;;23.40;86.50;;;;;;5098773;28;19919;-67
2022/06/03 12:40:45;;;;;;;;;;;23.10;85.70;;;;;;5098574;28;19928;-67
2022/06/03 12:43:29;;;;;;;;;;;23.30;85.50;;;;;;5077683;28;19916;-69
2022/06/03 12:46:07;;;;;;;;;;;23.50;83.60;;;;;;5074490;28;19942;-68
2022/06/03 12:48:51;;;;;;;;;;;23.70;83.80;;;;;;5091647;28;19912;-70
2022/06/03 12:51:17;;;;;;;;;;;23.80;84.20;;;;;;5079644;28;19924;-66
2022/06/03 12:53:44;;;;;;;;;;;23.70;83.90;;;;;;5080603;28;19919;-66
2022/06/03 12:56:11;;;;;;;;;;;23.90;83.60;;;;;;5083176;28;20349;-67
2022/06/03 12:58:42;;;;;;;;;;;23.60;82.70;;;;;;5083643;28;19983;-69
2022/06/03 13:01:08;;;;;;;;;;;23.40;82.60;;;;;;5080217;28;20010;-68
2022/06/03 13:03:34;;;;;;;;;;;23.00;84.50;;;;;;5080542;28;19920;-67
2022/06/03 13:06:03;;;;;;;;;;;22.90;84.70;;;;;;5078981;28;20295;-67
2022/06/03 13:08:28;;;;;;;;;;;23.00;85.10;;;;;;5077612;28;19912;-69
2022/06/03 13:10:59;;;;;;;;;;;23.00;85.30;;;;;;5076365;28;20269;-68
2022/06/03 13:13:28;;;;;;;;;;;22.80;85.50;;;;;;5102977;28;20304;-68
2022/06/03 13:16:14;;;;;;;;;;;22.70;84.00;;;;;;5078775;28;19919;-69
2022/06/03 13:18:41;;;;;;;;;;;22.60;83.70;;;;;;5084461;28;19912;-70
2022/06/03 13:21:07;;;;;;;;;;;22.70;83.50;;;;;;5083000;28;20362;-70
2022/06/03 13:23:34;;;;;;;;;;;22.70;84.40;;;;;;5081428;28;19924;-70
2022/06/03 13:26:18;;;;;;;;;;;22.70;83.80;;;;;;5085195;28;19924;-68
2022/06/03 13:28:44;;;;;;;;;;;22.60;82.40;;;;;;5065924;28;20373;-68
2022/06/03 13:31:12;;;;;;;;;;;22.60;83.50;;;;;;5085469;28;19912;-70
2022/06/03 13:33:57;;;;;;;;;;;22.50;82.70;;;;;;5086294;28;19921;-70
2022/06/03 13:36:30;;;;;;;;;;;22.70;83.70;;;;;;5082664;28;20309;-67
2022/06/03 13:38:56;;;;;;;;;;;22.80;83.10;;;;;;5084930;28;19917;-68
2022/06/03 13:44:39;;;;;;;;;;;22.50;82.10;;;;;;5085784;28;20052;-68
2022/06/03 13:47:09;;;;;;;;;;;22.40;83.90;;;;;;5082907;28;19912;-70
2022/06/03 13:49:36;;;;;;;;;;;22.30;83.40;;;;;;5083430;28;19923;-68
2022/06/03 13:52:02;;;;;;;;;;;22.30;83.70;;;;;;5083301;28;20348;-69
2022/06/03 13:54:33;;;;;;;;;;;22.30;84.30;;;;;;5068059;28;19990;-68
2022/06/03 13:57:07;;;;;;;;;;;22.30;86.20;;;;;;5082760;28;20334;-67
2022/06/03 13:59:34;;;;;;;;;;;22.40;85.90;;;;;;5083527;28;20476;-67
2022/06/03 14:01:59;;;;;;;;;;;22.60;86.00;;;;;;5066734;28;19962;-69
2022/06/03 14:04:27;;;;;;;;;;;22.60;84.20;;;;;;5082636;28;20384;-67
2022/06/03 14:07:04;;;;;;;;;;;22.40;84.30;;;;;;5083684;28;19921;-68
2022/06/03 14:09:32;;;;;;;;;;;22.20;85.30;;;;;;5090502;28;19954;-68
2022/06/03 14:12:11;;;;;;;;;;;22.10;85.60;;;;;;5085333;28;19912;-67
2022/06/03 14:14:56;;;;;;;;;;;22.30;86.00;;;;;;5086080;28;19936;-66
2022/06/03 14:17:34;;;;;;;;;;;22.10;86.40;;;;;;5086635;28;20026;-68
2022/06/03 14:20:06;;;;;;;;;;;22.10;87.00;;;;;;5083860;28;19928;-70
2022/06/03 14:22:34;;;;;;;;;;;22.40;86.10;;;;;;5079786;28;19913;-69
2022/06/03 14:25:03;;;;;;;;;;;22.40;86.00;;;;;;5064880;28;19940;-68
2022/06/03 14:27:32;;;;;;;;;;;22.40;86.10;;;;;;5080693;28;19911;-70
2022/06/03 14:30:05;;;;;;;;;;;22.50;86.80;;;;;;5084877;28;19916;-69
2022/06/03 14:32:33;;;;;;;;;;;22.30;85.40;;;;;;5095138;28;20437;-70
2022/06/03 14:35:05;;;;;;;;;;;22.20;85.50;;;;;;5061766;28;19920;-70
2022/06/03 14:37:40;;;;;;;;;;;22.30;86.40;;;;;;5076192;28;19919;-68
2022/06/03 14:40:08;;;;;;;;;;;22.30;85.80;;;;;;5080876;28;19917;-69
2022/06/03 14:42:35;;;;;;;;;;;22.30;87.40;;;;;;5079167;28;20618;-68
2022/06/03 14:45:01;;;;;;;;;;;22.20;86.80;;;;;;5088749;28;19916;-70
2022/06/03 14:47:33;;;;;;;;;;;22.30;85.90;;;;;;5074442;28;19928;-67
2022/06/03 14:50:02;;;;;;;;;;;22.20;85.70;;;;;;5096843;28;19912;-69
2022/06/03 14:52:30;;;;;;;;;;;22.10;85.00;;;;;;5087405;28;19917;-69
2022/06/03 14:54:57;;;;;;;;;;;21.90;85.30;;;;;;5092875;28;19941;-70
2022/06/03 14:57:49;;;;;;;;;;;21.70;86.40;;;;;;5079629;28;19920;-69
2022/06/03 15:00:34;;;;;;;;;;;21.50;88.90;;;;;;5074671;28;19994;-69
2022/06/03 15:03:07;;;;;;;;;;;21.30;90.50;;;;;;5077896;28;20310;-67
2022/06/03 15:05:41;;;;;;;;;;;21.10;91.60;;;;;;5078440;28;19931;-67
2022/06/03 15:08:09;;;;;;;;;;;20.70;92.50;;;;;;5078303;28;19939;-68
2022/06/03 15:10:35;;;;;;;;;;;20.60;93.10;;;;;;5082230;28;19919;-66
2022/06/03 15:13:01;;;;;;;;;;;20.50;93.30;;;;;;5081790;28;20234;-72
2022/06/03 15:15:35;;;;;;;;;;;20.70;93.50;;;;;;5078531;28;20011;-72
2022/06/03 15:18:20;;;;;;;;;;;20.70;92.80;;;;;;5058921;28;19912;-70